createdAt,value
2019-02-14T00:02:06.928Z,10.77
2019-02-14T00:04:37.281Z,10.57
2019-02-14T00:07:07.555Z,11.50
2019-02-14T00:09:40.757Z,10.30
2019-02-14T00:12:13.807Z,10.10
2019-02-14T00:14:43.840Z,10.53
2019-02-14T00:17:13.893Z,11.70
2019-02-14T00:19:43.976Z,11.00
2019-02-14T00:22:17.628Z,11.50
2019-02-14T00:24:47.790Z,11.20
2019-02-14T00:27:18.041Z,11.07
2019-02-14T00:29:48.048Z,10.37
2019-02-14T00:32:20.921Z,11.40
2019-02-14T00:34:50.964Z,11.20
2019-02-14T00:37:20.972Z,11.20
2019-02-14T00:39:51.052Z,11.07
2019-02-14T00:42:21.416Z,10.47
2019-02-14T00:44:55.638Z,11.10
2019-02-14T00:47:25.981Z,9.87
2019-02-14T00:49:56.091Z,9.83
2019-02-14T00:52:31.854Z,10.67
2019-02-14T00:55:01.868Z,10.80
2019-02-14T00:57:31.885Z,10.80
2019-02-14T01:00:02.349Z,10.00
2019-02-14T01:02:34.704Z,10.10
2019-02-14T01:05:05.168Z,10.10
2019-02-14T01:07:35.384Z,9.60
2019-02-14T01:10:05.767Z,10.47
2019-02-14T01:12:41.756Z,10.10
2019-02-14T01:15:11.999Z,10.40
2019-02-14T01:17:44.851Z,11.27
2019-02-14T01:20:17.731Z,11.50
2019-02-14T01:22:47.736Z,11.80
2019-02-14T01:25:17.941Z,10.90
2019-02-14T01:27:48.307Z,10.97
2019-02-14T01:30:20.491Z,10.83
2019-02-14T01:32:50.983Z,11.30
2019-02-14T01:35:21.036Z,10.80
2019-02-14T01:37:51.417Z,11.13
2019-02-14T01:40:21.523Z,10.73
2019-02-14T01:42:51.503Z,10.80
2019-02-14T01:45:22.309Z,10.63
2019-02-14T01:47:52.405Z,10.93
2019-02-14T01:50:22.417Z,10.83
2019-02-14T01:52:52.469Z,9.57
2019-02-14T01:55:22.627Z,9.63
2019-02-14T01:57:52.628Z,9.67
2019-02-14T02:00:22.861Z,9.40
2019-02-14T02:02:55.830Z,10.50
2019-02-14T02:05:25.855Z,10.10
2019-02-14T02:07:55.825Z,9.23
2019-02-14T02:10:26.599Z,9.63
2019-02-14T02:12:56.573Z,10.13
2019-02-14T02:15:26.505Z,9.70
2019-02-14T02:17:57.029Z,9.87
2019-02-14T02:20:33.197Z,9.33
2019-02-14T02:22:58.671Z,9.97
2019-02-14T02:25:28.700Z,9.50
2019-02-14T02:27:58.639Z,10.13
2019-02-14T02:30:28.581Z,10.20
2019-02-14T02:32:59.893Z,10.00
2019-02-14T02:35:29.869Z,10.43
2019-02-14T02:37:59.817Z,10.40
2019-02-14T02:40:30.048Z,10.00
2019-02-14T02:43:00.275Z,10.90
2019-02-14T02:45:30.275Z,10.10
2019-02-14T02:48:00.336Z,9.50
2019-02-14T02:50:30.397Z,10.00
2019-02-14T02:53:00.380Z,9.07
2019-02-14T02:55:30.490Z,10.13
2019-02-14T02:58:22.592Z,11.00
2019-02-14T03:00:55.578Z,9.93
2019-02-14T03:03:25.704Z,9.33
2019-02-14T03:05:55.933Z,9.77
2019-02-14T03:08:25.942Z,10.40
2019-02-14T03:10:55.936Z,9.30
2019-02-14T03:13:47.373Z,8.97
2019-02-14T03:16:17.448Z,9.73
2019-02-14T03:18:47.563Z,9.13
2019-02-14T03:21:17.666Z,10.00
2019-02-14T03:23:47.968Z,8.20
2019-02-14T03:26:18.593Z,9.97
2019-02-14T03:28:50.223Z,9.83
2019-02-14T03:31:20.482Z,9.37
2019-02-14T03:33:50.616Z,9.60
2019-02-14T03:36:20.805Z,9.20
2019-02-14T03:38:58.614Z,10.40
2019-02-14T03:41:28.862Z,8.97
2019-02-14T03:43:58.924Z,9.73
2019-02-14T03:46:28.938Z,9.30
2019-02-14T03:48:59.648Z,9.93
2019-02-14T03:51:29.669Z,9.60
2019-02-14T03:54:05.036Z,8.53
2019-02-14T03:56:35.061Z,10.23
2019-02-14T03:59:05.227Z,8.87
2019-02-14T04:01:36.058Z,8.93
2019-02-14T04:04:10.070Z,9.37
2019-02-14T04:06:41.453Z,8.73
2019-02-14T04:09:11.483Z,9.97
2019-02-14T04:11:41.540Z,8.80
2019-02-14T04:14:14.076Z,9.93
2019-02-14T04:16:44.117Z,9.27
2019-02-14T04:19:14.139Z,10.40
2019-02-14T04:21:44.487Z,9.60
2019-02-14T04:24:15.029Z,9.93
2019-02-14T04:26:45.024Z,9.57
2019-02-14T04:29:15.266Z,9.27
2019-02-14T04:31:45.347Z,9.43
2019-02-14T04:34:21.551Z,9.70
2019-02-14T04:36:51.669Z,8.93
2019-02-14T04:39:21.680Z,9.10
2019-02-14T04:41:51.893Z,9.33
2019-02-14T04:44:30.707Z,10.20
2019-02-14T04:47:01.172Z,9.83
2019-02-14T04:49:31.217Z,8.73
2019-02-14T04:52:01.304Z,9.30
2019-02-14T04:54:32.809Z,8.80
2019-02-14T04:57:03.341Z,9.90
2019-02-14T04:59:33.439Z,9.47
2019-02-14T05:02:03.685Z,9.93
2019-02-14T05:04:39.680Z,9.80
2019-02-14T05:07:09.881Z,9.20
2019-02-14T05:09:45.913Z,9.10
2019-02-14T05:12:16.162Z,10.20
2019-02-14T05:14:46.281Z,10.20
2019-02-14T05:17:16.296Z,9.47
2019-02-14T05:19:46.471Z,9.00
2019-02-14T05:22:16.500Z,9.77
2019-02-14T05:24:53.372Z,9.53
2019-02-14T05:27:23.556Z,9.67
2019-02-14T05:29:53.654Z,10.27
2019-02-14T05:32:23.918Z,8.73
2019-02-14T05:34:57.798Z,8.80
2019-02-14T05:37:29.186Z,9.80
2019-02-14T05:39:59.234Z,9.67
2019-02-14T05:42:29.292Z,9.70
2019-02-14T05:45:12.991Z,9.10
2019-02-14T05:47:43.125Z,8.90
2019-02-14T05:50:13.416Z,9.37
2019-02-14T05:52:43.598Z,9.47
2019-02-14T05:55:13.845Z,9.80
2019-02-14T05:57:43.977Z,10.10
2019-02-14T06:00:15.272Z,9.77
2019-02-14T06:02:45.303Z,9.20
2019-02-14T06:05:15.429Z,9.60
2019-02-14T06:07:50.245Z,8.87
2019-02-14T06:10:20.260Z,9.83
2019-02-14T06:12:50.315Z,10.87
2019-02-14T06:15:21.416Z,9.93
2019-02-14T06:17:51.429Z,10.40
2019-02-14T06:20:21.469Z,10.50
2019-02-14T06:22:55.504Z,9.27
2019-02-14T06:25:25.561Z,9.87
2019-02-14T06:27:55.590Z,10.17
2019-02-14T06:30:26.108Z,10.13
2019-02-14T06:33:03.120Z,11.27
2019-02-14T06:35:33.912Z,9.97
2019-02-14T06:38:04.078Z,10.00
2019-02-14T06:40:35.630Z,10.30
2019-02-14T06:43:08.947Z,11.13
2019-02-14T06:45:39.045Z,11.97
2019-02-14T06:48:09.113Z,12.33
2019-02-14T06:50:40.541Z,11.63
2019-02-14T06:53:10.628Z,11.80
2019-02-14T06:55:41.068Z,11.83
2019-02-14T06:58:12.883Z,12.33
2019-02-14T07:00:43.073Z,12.37
2019-02-14T07:03:13.143Z,12.80
2019-02-14T07:05:44.817Z,11.97
2019-02-14T07:08:18.073Z,11.90
2019-02-14T07:10:48.163Z,12.43
2019-02-14T07:13:18.480Z,11.50
2019-02-14T07:15:52.188Z,11.70
2019-02-14T07:18:24.605Z,11.60
2019-02-14T07:20:57.032Z,11.90
2019-02-14T07:23:27.076Z,11.70
2019-02-14T07:25:57.089Z,10.30
2019-02-14T07:28:27.310Z,9.50
2019-02-14T07:30:57.661Z,12.00
2019-02-14T07:33:30.366Z,10.33
2019-02-14T07:36:00.923Z,10.43
2019-02-14T07:38:33.949Z,10.67
2019-02-14T07:41:17.795Z,10.20
2019-02-14T07:43:48.232Z,10.97
2019-02-14T07:46:22.795Z,9.50
2019-02-14T07:48:50.159Z,11.13
2019-02-14T07:51:20.186Z,10.20
2019-02-14T07:53:53.221Z,10.10
2019-02-14T07:56:26.176Z,9.60
2019-02-14T07:58:59.896Z,12.50
2019-02-14T08:01:29.945Z,13.80
2019-02-14T08:04:00.065Z,17.70
2019-02-14T08:06:33.289Z,20.90
2019-02-14T08:09:08.098Z,15.30
2019-02-14T08:11:38.381Z,15.40
2019-02-14T08:14:08.396Z,15.83
2019-02-14T08:16:38.651Z,12.67
2019-02-14T08:19:11.934Z,13.00
2019-02-14T08:21:43.247Z,12.23
2019-02-14T08:24:13.386Z,12.30
2019-02-14T08:26:43.665Z,12.00
2019-02-14T08:29:13.789Z,11.83
2019-02-14T08:31:43.870Z,11.00
2019-02-14T08:34:13.971Z,10.97
2019-02-14T08:36:44.154Z,11.30
2019-02-14T08:39:18.531Z,10.87
2019-02-14T08:41:48.563Z,10.40
2019-02-14T08:44:20.280Z,11.53
2019-02-14T08:46:50.964Z,10.67
2019-02-14T08:49:21.069Z,10.50
2019-02-14T08:51:54.479Z,10.50
2019-02-14T08:54:27.273Z,11.80
2019-02-14T08:57:03.316Z,10.63
2019-02-14T08:59:34.815Z,10.37
2019-02-14T09:02:04.998Z,10.73
2019-02-14T09:04:35.555Z,9.93
2019-02-14T09:07:05.584Z,10.30
2019-02-14T09:09:36.841Z,9.83
2019-02-14T09:12:08.687Z,10.40
2019-02-14T09:14:41.810Z,8.87
2019-02-14T09:17:14.624Z,9.10
2019-02-14T09:19:44.922Z,9.23
2019-02-14T09:22:15.711Z,8.70
2019-02-14T09:24:46.107Z,9.03
2019-02-14T09:27:17.981Z,8.47
2019-02-14T09:29:48.417Z,8.63
2019-02-14T09:32:25.759Z,9.00
2019-02-14T09:34:56.177Z,10.83
2019-02-14T09:37:26.693Z,8.83
2019-02-14T09:39:57.589Z,9.87
2019-02-14T09:42:29.166Z,9.43
2019-02-14T09:44:59.587Z,8.40
2019-02-14T09:47:29.990Z,9.63
2019-02-14T09:50:00.481Z,8.50
2019-02-14T09:52:34.327Z,8.97
2019-02-14T09:55:04.718Z,8.73
2019-02-14T09:57:35.268Z,7.97
2019-02-14T10:00:07.442Z,8.90
2019-02-14T10:02:37.737Z,7.10
2019-02-14T10:05:10.379Z,7.03
2019-02-14T10:07:40.952Z,7.50
2019-02-14T10:10:13.728Z,7.00
2019-02-14T10:12:44.499Z,7.47
2019-02-14T10:15:15.598Z,6.77
2019-02-14T10:17:46.450Z,6.40
2019-02-14T10:20:17.382Z,6.53
2019-02-14T10:22:49.726Z,6.13
2019-02-14T10:25:23.159Z,5.70
2019-02-14T10:27:54.046Z,5.80
2019-02-14T10:30:24.392Z,6.20
2019-02-14T10:32:56.165Z,5.80
2019-02-14T10:35:27.047Z,5.40
2019-02-14T10:37:57.807Z,5.63
2019-02-14T10:40:28.800Z,6.10
2019-02-14T10:43:00.995Z,5.67
2019-02-14T10:45:31.755Z,5.67
2019-02-14T10:48:02.357Z,6.00
2019-02-14T10:50:32.796Z,5.17
2019-02-14T10:53:05.425Z,5.30
2019-02-14T10:55:36.950Z,5.80
2019-02-14T10:58:07.467Z,6.00
2019-02-14T11:00:39.792Z,6.20
2019-02-14T11:03:13.152Z,5.63
2019-02-14T11:05:47.787Z,5.43
2019-02-14T11:08:31.071Z,5.80
2019-02-14T11:11:02.400Z,5.37
2019-02-14T11:13:32.960Z,4.70
2019-02-14T11:16:04.033Z,5.40
2019-02-14T11:18:43.719Z,5.47
2019-02-14T11:21:07.340Z,5.17
2019-02-14T11:23:41.590Z,4.97
2019-02-14T11:26:14.786Z,5.20
2019-02-14T11:28:45.243Z,6.20
2019-02-14T11:31:15.361Z,4.60
2019-02-14T11:33:45.861Z,5.03
2019-02-14T11:36:18.697Z,4.77
2019-02-14T11:38:49.217Z,4.67
2019-02-14T11:41:20.613Z,4.30
2019-02-14T11:43:51.025Z,4.53
2019-02-14T11:46:21.366Z,3.97
2019-02-14T11:48:56.384Z,3.90
2019-02-14T11:51:26.837Z,3.53
2019-02-14T11:53:57.846Z,3.80
2019-02-14T11:56:28.686Z,4.37
2019-02-14T11:58:59.223Z,3.73
2019-02-14T12:01:29.761Z,3.67
2019-02-14T12:04:03.469Z,3.63
2019-02-14T12:06:34.153Z,3.30
2019-02-14T12:09:05.951Z,3.50
2019-02-14T12:11:36.162Z,3.90
2019-02-14T12:14:06.495Z,3.00
2019-02-14T12:16:39.163Z,2.77
2019-02-14T12:19:11.549Z,3.20
2019-02-14T12:21:41.757Z,2.97
2019-02-14T12:24:14.898Z,3.17
2019-02-14T12:26:45.282Z,3.27
2019-02-14T12:29:15.301Z,3.10
2019-02-14T12:31:47.360Z,3.13
2019-02-14T12:34:18.087Z,2.80
2019-02-14T12:36:48.623Z,2.23
2019-02-14T12:39:18.932Z,2.63
2019-02-14T12:41:49.297Z,2.33
2019-02-14T12:44:19.939Z,2.57
2019-02-14T12:46:51.828Z,2.60
2019-02-14T12:49:22.107Z,2.73
2019-02-14T12:51:52.619Z,2.70
2019-02-14T12:54:26.510Z,2.73
2019-02-14T12:57:01.701Z,2.57
2019-02-14T12:59:32.246Z,3.23
2019-02-14T13:02:06.454Z,3.17
2019-02-14T13:04:37.177Z,3.27
2019-02-14T13:07:09.089Z,3.33
2019-02-14T13:09:39.727Z,3.40
2019-02-14T13:12:10.735Z,3.60
2019-02-14T13:14:41.358Z,4.07
2019-02-14T13:17:11.844Z,4.20
2019-02-14T13:19:43.352Z,3.80
2019-02-14T13:24:49.426Z,3.80
2019-02-14T13:27:21.804Z,3.57
2019-02-14T13:29:52.422Z,3.90
2019-02-14T13:32:28.205Z,3.93
2019-02-14T13:35:00.753Z,4.00
2019-02-14T13:37:33.782Z,4.17
2019-02-14T13:40:07.565Z,4.60
2019-02-14T13:42:38.669Z,4.20
2019-02-14T13:45:13.522Z,4.30
2019-02-14T13:47:44.302Z,4.97
2019-02-14T13:50:16.050Z,4.77
2019-02-14T13:52:51.412Z,4.33
2019-02-14T13:55:25.023Z,4.07
2019-02-14T13:58:02.078Z,4.03
2019-02-14T14:00:35.230Z,4.30
2019-02-14T14:03:05.706Z,4.53
2019-02-14T14:05:36.538Z,3.93
2019-02-14T14:08:10.032Z,4.67
2019-02-14T14:10:40.627Z,4.53
2019-02-14T14:13:12.833Z,4.20
2019-02-14T14:15:43.651Z,4.10
2019-02-14T14:18:15.030Z,4.47
2019-02-14T14:20:45.691Z,3.40
2019-02-14T14:23:16.525Z,3.43
2019-02-14T14:25:49.287Z,4.13
2019-02-14T14:28:19.727Z,3.93
2019-02-14T14:30:49.970Z,3.50
2019-02-14T14:33:20.933Z,3.80
2019-02-14T14:35:51.774Z,3.93
2019-02-14T14:38:30.735Z,4.20
2019-02-14T14:41:02.099Z,3.93
2019-02-14T14:44:02.846Z,3.60
2019-02-14T14:46:48.090Z,4.27
2019-02-14T14:49:19.535Z,4.50
2019-02-14T14:51:51.502Z,4.47
2019-02-14T14:54:23.874Z,4.70
2019-02-14T14:57:01.126Z,4.60
2019-02-14T14:59:32.891Z,4.10
2019-02-14T15:02:03.714Z,4.27
2019-02-14T15:04:34.339Z,4.30
2019-02-14T15:07:07.549Z,5.20
2019-02-14T15:09:37.845Z,4.50
2019-02-14T15:12:08.433Z,4.83
2019-02-14T15:14:38.653Z,4.10
2019-02-14T15:17:09.362Z,4.47
2019-02-14T15:19:39.577Z,4.10
2019-02-14T15:22:12.379Z,4.20
2019-02-14T15:24:42.858Z,4.67
2019-02-14T15:27:13.937Z,4.23
2019-02-14T15:29:46.878Z,3.77
2019-02-14T15:32:17.312Z,4.73
2019-02-14T15:34:47.455Z,4.70
2019-02-14T15:37:18.205Z,3.83
2019-02-14T15:39:51.390Z,4.73
2019-02-14T15:42:28.373Z,4.30
2019-02-14T15:44:59.848Z,4.30
2019-02-14T15:47:30.868Z,4.50
2019-02-14T15:50:03.867Z,4.77
2019-02-14T15:52:33.742Z,4.30
2019-02-14T15:55:10.013Z,4.50
2019-02-14T15:57:44.718Z,4.33
2019-02-14T16:00:17.111Z,4.23
2019-02-14T16:02:50.369Z,4.77
2019-02-14T16:05:25.985Z,4.20
2019-02-14T16:08:00.954Z,4.30
2019-02-14T16:10:33.310Z,4.60
2019-02-14T16:13:18.107Z,4.10
2019-02-14T16:15:58.688Z,4.20
2019-02-14T16:18:38.071Z,5.30
2019-02-14T16:21:16.109Z,4.10
2019-02-14T16:23:50.955Z,4.93
2019-02-14T16:26:21.074Z,3.93
2019-02-14T16:28:53.477Z,4.00
2019-02-14T16:31:24.439Z,3.40
2019-02-14T16:33:54.660Z,3.70
2019-02-14T16:36:24.956Z,4.10
2019-02-14T16:38:56.433Z,4.10
2019-02-14T16:41:28.250Z,3.90
2019-02-14T16:44:02.203Z,3.90
2019-02-14T16:46:33.151Z,3.67
2019-02-14T16:49:07.367Z,4.30
2019-02-14T16:51:38.003Z,4.20
2019-02-14T16:54:11.863Z,3.37
2019-02-14T16:56:42.307Z,3.23
2019-02-14T16:59:12.765Z,3.43
2019-02-14T17:01:43.520Z,3.63
2019-02-14T17:04:13.977Z,3.63
2019-02-14T17:06:44.596Z,3.53
2019-02-14T17:09:18.972Z,3.93
2019-02-14T17:11:51.343Z,3.87
2019-02-14T17:14:23.206Z,3.40
2019-02-14T17:16:53.510Z,4.00
2019-02-14T17:19:23.996Z,4.13
2019-02-14T17:21:55.627Z,4.30
2019-02-14T17:24:32.867Z,4.20
2019-02-14T17:27:03.361Z,3.80
2019-02-14T17:29:34.445Z,4.47
2019-02-14T17:32:04.934Z,4.17
2019-02-14T17:34:35.848Z,4.37
2019-02-14T17:37:16.257Z,4.03
2019-02-14T17:39:51.116Z,4.63
2019-02-14T17:42:24.435Z,4.17
2019-02-14T17:45:00.663Z,4.33
2019-02-14T17:47:31.103Z,5.03
2019-02-14T17:50:01.430Z,4.90
2019-02-14T17:52:35.988Z,5.07
2019-02-14T17:55:09.778Z,5.20
2019-02-14T17:57:40.435Z,5.20
2019-02-14T18:00:11.824Z,4.93
2019-02-14T18:02:42.489Z,5.30
2019-02-14T18:05:18.481Z,5.13
2019-02-14T18:07:46.796Z,5.90
2019-02-14T18:10:17.846Z,6.70
2019-02-14T18:12:50.269Z,8.90
2019-02-14T18:15:21.845Z,10.10
2019-02-14T18:17:55.224Z,10.07
2019-02-14T18:20:26.739Z,10.77
2019-02-14T18:23:00.177Z,10.97
2019-02-14T18:25:32.795Z,10.27
2019-02-14T18:28:03.382Z,11.30
2019-02-14T18:30:36.136Z,11.50
2019-02-14T18:33:08.018Z,13.03
2019-02-14T18:35:41.375Z,11.80
2019-02-14T18:38:14.756Z,13.60
2019-02-14T18:40:45.722Z,14.53
2019-02-14T18:43:20.641Z,14.97
2019-02-14T18:45:54.186Z,15.07
2019-02-14T18:48:25.668Z,15.87
2019-02-14T18:50:57.838Z,15.40
2019-02-14T18:53:31.537Z,14.23
2019-02-14T18:56:02.393Z,12.93
2019-02-14T18:58:34.815Z,13.97
2019-02-14T19:01:08.536Z,12.40
2019-02-14T19:03:39.475Z,11.90
2019-02-14T19:06:12.864Z,14.63
2019-02-14T19:08:43.586Z,15.50
2019-02-14T19:11:15.443Z,16.57
2019-02-14T19:13:47.866Z,17.23
2019-02-14T19:16:21.546Z,17.77
2019-02-14T19:19:01.954Z,17.43
2019-02-14T19:21:36.056Z,17.80
2019-02-14T19:24:06.650Z,17.83
2019-02-14T19:26:37.619Z,17.90
2019-02-14T19:29:08.056Z,17.10
2019-02-14T19:31:38.902Z,17.30
2019-02-14T19:34:10.923Z,16.70
2019-02-14T19:36:41.961Z,15.83
2019-02-14T19:39:13.132Z,15.60
2019-02-14T19:41:47.801Z,17.00
2019-02-14T19:44:19.195Z,17.13
2019-02-14T19:46:51.064Z,16.40
2019-02-14T19:49:21.560Z,15.53
2019-02-14T19:51:52.201Z,17.00
2019-02-14T19:54:22.766Z,16.10
2019-02-14T19:57:01.464Z,16.60
2019-02-14T19:59:35.784Z,17.33
2019-02-14T20:02:06.463Z,17.10
2019-02-14T20:04:38.859Z,16.83
2019-02-14T20:07:09.715Z,17.17
2019-02-14T20:09:43.391Z,16.87
2019-02-14T20:12:17.724Z,16.80
2019-02-14T20:14:48.190Z,17.30
2019-02-14T20:17:18.573Z,16.10
2019-02-14T20:19:55.836Z,16.70
2019-02-14T20:22:26.274Z,16.50
2019-02-14T20:24:56.687Z,19.20
2019-02-14T20:27:27.828Z,17.80
2019-02-14T20:30:01.385Z,19.17
2019-02-14T20:32:32.386Z,18.83
2019-02-14T20:35:02.945Z,19.20
2019-02-14T20:37:35.891Z,18.40
2019-02-14T20:40:07.512Z,17.97
2019-02-14T20:42:38.260Z,18.90
2019-02-14T20:45:10.774Z,19.23
2019-02-14T20:47:41.279Z,18.37
2019-02-14T20:50:15.547Z,18.57
2019-02-14T20:52:47.397Z,18.83
2019-02-14T20:55:18.101Z,19.40
2019-02-14T20:57:51.979Z,18.10
2019-02-14T21:00:28.417Z,19.13
2019-02-14T21:02:59.562Z,17.13
2019-02-14T21:05:30.087Z,15.93
2019-02-14T21:08:00.670Z,15.90
2019-02-14T21:10:32.054Z,15.43
2019-02-14T21:13:11.071Z,16.10
2019-02-14T21:15:41.637Z,15.67
2019-02-14T21:18:12.257Z,15.47
2019-02-14T21:20:42.620Z,15.03
2019-02-14T21:23:13.269Z,15.70
2019-02-14T21:25:43.573Z,15.70
2019-02-14T21:28:14.055Z,15.50
2019-02-14T21:30:44.746Z,14.87
2019-02-14T21:33:15.253Z,14.50
2019-02-14T21:35:45.466Z,14.23
2019-02-14T21:38:15.898Z,14.83
2019-02-14T21:40:46.245Z,14.13
2019-02-14T21:43:18.158Z,12.30
2019-02-14T21:45:48.787Z,14.40
2019-02-14T21:48:19.327Z,13.80
2019-02-14T21:50:50.188Z,13.47
2019-02-14T21:53:20.850Z,12.53
2019-02-14T21:55:52.491Z,13.83
2019-02-14T21:58:23.633Z,12.60
2019-02-14T22:00:54.617Z,13.17
2019-02-14T22:03:28.149Z,12.67
2019-02-14T22:05:58.973Z,12.00
2019-02-14T22:08:31.967Z,12.13
2019-02-14T22:11:05.448Z,13.07
2019-02-14T22:13:35.952Z,12.60
2019-02-14T22:16:09.527Z,12.83
2019-02-14T22:18:40.157Z,13.10
2019-02-14T22:21:10.466Z,13.13
2019-02-14T22:23:44.032Z,12.20
2019-02-14T22:26:14.338Z,12.83
2019-02-14T22:28:47.106Z,13.50
2019-02-14T22:31:19.379Z,14.70
2019-02-14T22:33:51.293Z,12.80
2019-02-14T22:36:25.111Z,13.50
2019-02-14T22:38:55.382Z,12.40
2019-02-14T22:41:25.905Z,13.67
2019-02-14T22:43:59.471Z,14.63
2019-02-14T22:46:32.190Z,13.87
2019-02-14T22:49:05.568Z,13.00
2019-02-14T22:51:36.185Z,13.93
2019-02-14T22:54:06.610Z,13.73
2019-02-14T22:56:37.200Z,14.00
2019-02-14T22:59:13.618Z,13.70
2019-02-14T23:01:45.146Z,14.47
2019-02-14T23:04:18.362Z,14.97
2019-02-14T23:06:50.768Z,13.20
2019-02-14T23:09:21.086Z,12.00
2019-02-14T23:11:51.292Z,12.87
2019-02-14T23:14:24.718Z,12.00
2019-02-14T23:16:55.439Z,11.20
2019-02-14T23:19:25.887Z,12.77
2019-02-14T23:21:56.362Z,11.73
2019-02-14T23:24:26.813Z,11.10
2019-02-14T23:26:57.018Z,10.53
2019-02-14T23:29:27.910Z,10.97
2019-02-14T23:31:59.583Z,11.47
2019-02-14T23:34:29.866Z,11.23
2019-02-14T23:37:01.069Z,11.37
2019-02-14T23:39:31.661Z,11.53
2019-02-14T23:42:01.994Z,11.20
2019-02-14T23:44:33.025Z,10.93
2019-02-14T23:47:03.430Z,11.00
2019-02-14T23:49:33.890Z,11.67
2019-02-14T23:52:04.365Z,10.90
2019-02-14T23:54:34.763Z,12.00
2019-02-14T23:57:20.881Z,11.60
2019-02-14T23:59:51.154Z,10.00
